Time;durP1;ratioP1;P1;durP2;ratioP2;P2;SDS_P1;SDS_P2;PMS_P1;PMS_P2;Temp;Humidity;BMP_temperature;BMP_pressure;BME280_temperature;BME280_humidity;BME280_pressure;Samples;Min_cycle;Max_cycle;Signal;HPM_P1;HPM_P2
2023/07/25 00:01:49;;;;;;;9.45;3.47;;;15.00;99.90;;;;;;5079844;28;20233;-81
2023/07/25 00:04:16;;;;;;;8.68;3.60;;;14.90;99.90;;;;;;5080684;28;20233;-81
2023/07/25 00:06:43;;;;;;;9.48;3.38;;;15.00;99.90;;;;;;5090636;28;20214;-80
2023/07/25 00:09:09;;;;;;;13.10;3.10;;;14.80;99.90;;;;;;5100212;28;20210;-82
2023/07/25 00:11:36;;;;;;;11.38;3.30;;;14.90;99.90;;;;;;5099784;28;20213;-82
2023/07/25 00:14:03;;;;;;;10.43;3.30;;;14.80;99.90;;;;;;5099350;28;20276;-80
2023/07/25 00:16:31;;;;;;;8.27;2.97;;;14.70;99.90;;;;;;5099808;28;20591;-82
2023/07/25 00:18:58;;;;;;;5.30;2.90;;;14.80;99.90;;;;;;5099376;28;20296;-82
2023/07/25 00:21:25;;;;;;;8.38;3.17;;;14.70;99.90;;;;;;5099929;28;20280;-82
2023/07/25 00:23:51;;;;;;;11.32;3.15;;;14.60;99.90;;;;;;5099561;28;20224;-81
2023/07/25 00:26:18;;;;;;;7.10;3.22;;;14.60;99.90;;;;;;5099234;28;20211;-82
2023/07/25 00:28:45;;;;;;;7.00;3.00;;;14.60;99.90;;;;;;5099799;28;20197;-81
2023/07/25 00:31:12;;;;;;;9.40;3.08;;;14.50;99.90;;;;;;5099859;28;20198;-80
2023/07/25 00:33:40;;;;;;;5.70;2.88;;;14.50;99.90;;;;;;5098160;28;20351;-79
2023/07/25 00:36:07;;;;;;;17.05;3.47;;;14.40;99.90;;;;;;5100181;28;20201;-82
2023/07/25 00:38:34;;;;;;;9.77;3.28;;;14.30;99.90;;;;;;5099311;28;20545;-80
2023/07/25 00:41:01;;;;;;;8.70;3.08;;;14.20;99.90;;;;;;5093284;28;20195;-82
2023/07/25 00:43:27;;;;;;;7.30;2.88;;;14.10;99.90;;;;;;5078203;28;20275;-82
2023/07/25 00:45:54;;;;;;;8.70;4.15;;;14.10;99.90;;;;;;5078868;28;20717;-81
2023/07/25 00:48:21;;;;;;;11.45;3.08;;;14.10;99.90;;;;;;5079744;28;20206;-81
2023/07/25 00:50:50;;;;;;;8.82;3.35;;;14.00;99.90;;;;;;5078713;28;20198;-82
2023/07/25 00:53:18;;;;;;;5.18;3.28;;;14.10;99.90;;;;;;5078559;28;20249;-81
2023/07/25 00:55:45;;;;;;;9.00;3.65;;;14.00;99.90;;;;;;5079113;28;20315;-81
2023/07/25 00:58:12;;;;;;;9.02;3.08;;;14.00;99.90;;;;;;5079305;28;20206;-82
2023/07/25 01:00:39;;;;;;;11.15;3.20;;;14.00;99.90;;;;;;5079007;28;20209;-82
2023/07/25 01:03:06;;;;;;;9.80;3.30;;;14.00;99.90;;;;;;5078160;28;20238;-81
2023/07/25 01:05:36;;;;;;;9.10;3.08;;;13.90;99.90;;;;;;5078428;28;20218;-81
2023/07/25 01:08:04;;;;;;;10.30;3.45;;;13.90;99.90;;;;;;5092734;28;20217;-82
2023/07/25 01:10:32;;;;;;;6.68;3.17;;;13.90;99.90;;;;;;5098918;28;20690;-79
2023/07/25 01:12:59;;;;;;;10.68;3.03;;;14.10;99.90;;;;;;5098895;28;20225;-81
2023/07/25 01:15:26;;;;;;;9.63;3.03;;;13.90;99.90;;;;;;5098921;28;20709;-80
2023/07/25 01:17:54;;;;;;;10.52;3.40;;;13.90;99.90;;;;;;5096096;28;20270;-79
2023/07/25 01:20:21;;;;;;;7.60;3.08;;;13.90;99.90;;;;;;5083026;28;20202;-81
2023/07/25 01:22:49;;;;;;;6.93;2.90;;;13.90;99.90;;;;;;5083736;28;20222;-78
2023/07/25 01:25:17;;;;;;;10.52;3.33;;;13.90;99.90;;;;;;5083154;28;20225;-78
2023/07/25 01:27:44;;;;;;;7.57;3.45;;;13.80;99.90;;;;;;5082778;28;20206;-79
2023/07/25 01:30:11;;;;;;;7.55;3.10;;;13.90;99.90;;;;;;5083213;28;20212;-81
2023/07/25 01:32:38;;;;;;;7.82;3.08;;;13.90;99.90;;;;;;5082369;28;20226;-80
2023/07/25 01:35:06;;;;;;;12.50;4.18;;;14.00;99.90;;;;;;5082003;28;20206;-81
2023/07/25 01:37:33;;;;;;;13.15;3.40;;;13.90;99.90;;;;;;5082066;28;20690;-81
2023/07/25 01:40:00;;;;;;;8.80;3.10;;;14.00;99.90;;;;;;5082104;28;20202;-82
2023/07/25 01:42:28;;;;;;;9.73;3.20;;;14.00;99.90;;;;;;5082760;28;20228;-81
2023/07/25 01:44:54;;;;;;;10.45;3.22;;;14.00;99.90;;;;;;5082046;28;20226;-80
2023/07/25 01:47:25;;;;;;;9.43;3.00;;;14.00;99.90;;;;;;5081643;28;20198;-82
2023/07/25 01:49:52;;;;;;;9.18;3.10;;;14.00;99.90;;;;;;5082893;28;20523;-81
2023/07/25 01:52:18;;;;;;;4.35;2.70;;;14.10;99.90;;;;;;5081697;28;20220;-79
2023/07/25 01:54:45;;;;;;;12.52;3.40;;;14.20;99.90;;;;;;5079427;28;20202;-80
2023/07/25 01:57:12;;;;;;;8.05;3.08;;;14.20;99.90;;;;;;5081661;28;20210;-82
2023/07/25 01:59:40;;;;;;;10.23;3.00;;;14.20;99.90;;;;;;5082230;28;20202;-79
2023/07/25 02:02:07;;;;;;;6.43;2.90;;;14.20;99.90;;;;;;5080910;28;20232;-79
2023/07/25 02:04:34;;;;;;;12.00;2.83;;;14.20;99.90;;;;;;5092211;28;20229;-81
2023/07/25 02:07:01;;;;;;;15.98;4.18;;;14.30;99.90;;;;;;5101742;28;20205;-82
2023/07/25 02:09:27;;;;;;;9.63;3.03;;;14.20;99.90;;;;;;5101933;28;20205;-80
2023/07/25 02:11:54;;;;;;;9.40;3.00;;;14.20;99.90;;;;;;5101852;28;20217;-82
2023/07/25 02:14:22;;;;;;;9.20;3.08;;;14.20;99.90;;;;;;5101397;28;20197;-78
2023/07/25 02:16:50;;;;;;;8.23;3.00;;;14.30;99.90;;;;;;5101492;28;20722;-81
2023/07/25 02:19:17;;;;;;;8.63;3.20;;;14.30;99.90;;;;;;5100519;28;20254;-82
2023/07/25 02:21:44;;;;;;;12.45;2.92;;;14.30;99.90;;;;;;5101764;28;20205;-80
2023/07/25 02:24:11;;;;;;;13.30;3.22;;;14.30;99.90;;;;;;5101802;28;20305;-82
2023/07/25 02:26:38;;;;;;;9.77;3.95;;;14.40;99.90;;;;;;5081639;28;20265;-80
2023/07/25 02:29:04;;;;;;;11.75;4.07;;;14.30;99.90;;;;;;5079693;28;20202;-80
2023/07/25 02:31:31;;;;;;;14.32;4.10;;;14.20;99.90;;;;;;5080972;28;20730;-82
2023/07/25 02:33:59;;;;;;;7.65;3.17;;;14.20;99.90;;;;;;5096123;28;20266;-79
2023/07/25 02:36:26;;;;;;;8.82;3.25;;;14.20;99.90;;;;;;5100644;28;20548;-78
2023/07/25 02:38:53;;;;;;;11.45;3.10;;;14.30;99.90;;;;;;5100644;28;20201;-82
2023/07/25 02:41:20;;;;;;;8.03;3.43;;;14.30;99.90;;;;;;5101348;28;20212;-82
2023/07/25 02:43:46;;;;;;;12.55;3.38;;;14.30;99.90;;;;;;5100436;28;20229;-80
2023/07/25 02:46:13;;;;;;;7.57;2.92;;;14.20;99.90;;;;;;5100615;28;20227;-82
2023/07/25 02:48:40;;;;;;;5.40;3.22;;;14.30;99.90;;;;;;5100994;28;20567;-82
2023/07/25 02:51:08;;;;;;;9.95;3.33;;;14.30;99.90;;;;;;5100497;28;20261;-79
2023/07/25 02:53:35;;;;;;;10.27;3.40;;;14.30;99.90;;;;;;5099095;28;20225;-80
2023/07/25 02:56:02;;;;;;;11.75;3.30;;;14.30;99.90;;;;;;5100021;28;20214;-82
2023/07/25 02:58:28;;;;;;;7.13;2.78;;;14.40;99.90;;;;;;5100238;28;20214;-82
2023/07/25 03:00:55;;;;;;;9.77;3.42;;;14.50;99.90;;;;;;5099983;28;20202;-80
2023/07/25 03:03:22;;;;;;;10.27;3.63;;;14.40;99.90;;;;;;5100317;28;20308;-81
2023/07/25 03:05:49;;;;;;;10.02;3.17;;;14.40;99.90;;;;;;5100347;28;20236;-82
2023/07/25 03:08:17;;;;;;;13.65;4.15;;;14.50;99.90;;;;;;5100242;28;20608;-81
2023/07/25 03:10:44;;;;;;;9.43;3.40;;;14.40;99.90;;;;;;5100086;28;20201;-82
2023/07/25 03:13:11;;;;;;;7.47;3.28;;;14.50;99.90;;;;;;5099597;28;20225;-82
2023/07/25 03:15:38;;;;;;;13.88;3.55;;;14.40;99.90;;;;;;5101246;28;20535;-81
2023/07/25 03:18:05;;;;;;;14.43;3.00;;;14.40;99.90;;;;;;5100336;28;20201;-82
2023/07/25 03:20:32;;;;;;;13.55;4.18;;;14.40;99.90;;;;;;5101044;28;20201;-79
2023/07/25 03:22:58;;;;;;;9.88;3.20;;;14.40;99.90;;;;;;5100909;28;20229;-80
2023/07/25 03:25:27;;;;;;;15.85;3.50;;;14.40;99.90;;;;;;5100358;28;20697;-83
2023/07/25 03:27:54;;;;;;;51.95;36.92;;;14.30;99.90;;;;;;5099871;28;20726;-82
2023/07/25 03:30:21;;;;;;;9.40;4.82;;;14.40;99.90;;;;;;5100052;28;20201;-79
2023/07/25 03:32:47;;;;;;;10.75;3.72;;;14.30;99.90;;;;;;5091162;28;20233;-81
2023/07/25 03:35:14;;;;;;;6.95;3.10;;;14.30;99.90;;;;;;5079773;28;20440;-81
2023/07/25 03:37:41;;;;;;;8.80;3.40;;;14.30;99.90;;;;;;5079411;28;20206;-79
2023/07/25 03:40:08;;;;;;;10.65;3.42;;;14.30;99.90;;;;;;5077136;28;20217;-80
2023/07/25 03:42:36;;;;;;;10.32;3.28;;;14.30;99.90;;;;;;5077421;28;20661;-81
2023/07/25 03:45:04;;;;;;;11.18;3.50;;;14.30;99.90;;;;;;5078451;28;20226;-82
2023/07/25 03:47:30;;;;;;;8.25;2.92;;;14.30;99.90;;;;;;5078996;28;20579;-81
2023/07/25 03:49:57;;;;;;;11.52;3.20;;;14.30;99.90;;;;;;5082777;28;20221;-81
2023/07/25 03:52:24;;;;;;;8.00;3.13;;;14.20;99.90;;;;;;5097345;28;20221;-82
2023/07/25 03:54:51;;;;;;;11.32;3.25;;;14.20;99.90;;;;;;5097455;28;20209;-83
2023/07/25 03:57:17;;;;;;;11.35;3.80;;;14.20;99.90;;;;;;5095407;28;20205;-81
2023/07/25 03:59:45;;;;;;;19.48;3.85;;;14.20;99.90;;;;;;5096913;28;20198;-82
2023/07/25 04:02:12;;;;;;;15.10;3.80;;;14.30;99.90;;;;;;5094402;28;20225;-81
2023/07/25 04:04:39;;;;;;;10.52;3.63;;;14.30;99.90;;;;;;5087267;28;20572;-81
2023/07/25 04:07:06;;;;;;;7.50;3.05;;;14.30;99.90;;;;;;5085401;28;20201;-80
2023/07/25 04:09:33;;;;;;;7.70;3.33;;;14.30;99.90;;;;;;5095202;28;20204;-79
2023/07/25 04:11:59;;;;;;;14.43;3.92;;;14.30;99.90;;;;;;5095353;28;20221;-80
2023/07/25 04:14:26;;;;;;;12.25;3.90;;;14.40;99.90;;;;;;5095528;28;20202;-80
2023/07/25 04:16:54;;;;;;;9.85;3.78;;;14.30;99.90;;;;;;5097771;28;20197;-79
2023/07/25 04:19:22;;;;;;;8.18;3.63;;;14.40;99.90;;;;;;5077720;28;20225;-79
2023/07/25 04:21:49;;;;;;;15.50;4.53;;;14.40;99.90;;;;;;5095050;28;20222;-82
2023/07/25 04:24:16;;;;;;;10.55;3.45;;;14.50;99.90;;;;;;5097789;28;20898;-81
2023/07/25 04:26:43;;;;;;;11.43;4.32;;;14.50;99.90;;;;;;5097299;28;20221;-82
2023/07/25 04:29:09;;;;;;;10.00;3.92;;;14.50;99.90;;;;;;5097836;28;20202;-82
2023/07/25 04:31:36;;;;;;;12.68;4.28;;;14.60;99.90;;;;;;5097530;28;20205;-83
2023/07/25 04:34:04;;;;;;;12.30;4.90;;;14.60;99.90;;;;;;5097334;28;20692;-79
2023/07/25 04:36:31;;;;;;;11.73;3.88;;;14.70;99.90;;;;;;5095962;28;20190;-81
2023/07/25 04:38:58;;;;;;;7.90;3.60;;;14.70;99.90;;;;;;5098092;28;20210;-81
2023/07/25 04:41:25;;;;;;;13.00;4.13;;;14.60;99.90;;;;;;5097268;28;20209;-81
2023/07/25 04:43:51;;;;;;;12.48;4.03;;;14.60;99.90;;;;;;5098337;28;20316;-82
2023/07/25 04:46:18;;;;;;;11.00;4.95;;;14.60;99.90;;;;;;5097007;28;20707;-81
2023/07/25 04:48:45;;;;;;;10.00;3.95;;;14.50;99.90;;;;;;5097008;28;20201;-79
2023/07/25 04:51:13;;;;;;;10.68;4.10;;;14.60;99.90;;;;;;5097132;28;20256;-80
2023/07/25 04:53:40;;;;;;;9.13;4.28;;;14.60;99.90;;;;;;5096992;28;20229;-83
2023/07/25 04:56:07;;;;;;;15.07;4.32;;;14.70;99.90;;;;;;5097575;28;20212;-83
2023/07/25 04:58:38;;;;;;;9.57;3.40;;;14.70;99.90;;;;;;5097348;28;20258;-79
2023/07/25 05:01:05;;;;;;;13.05;4.57;;;14.60;99.90;;;;;;5098501;28;20232;-83
2023/07/25 05:03:31;;;;;;;10.57;4.00;;;14.50;99.90;;;;;;5098291;28;20221;-82
2023/07/25 05:05:58;;;;;;;7.57;4.10;;;14.50;99.90;;;;;;5098503;28;20305;-82
2023/07/25 05:08:26;;;;;;;12.05;3.95;;;14.40;99.90;;;;;;5098106;28;20213;-81
2023/07/25 05:10:54;;;;;;;7.18;4.03;;;14.70;99.90;;;;;;5098969;28;20570;-82
2023/07/25 05:13:21;;;;;;;7.88;3.67;;;14.70;99.90;;;;;;5098207;28;20221;-82
2023/07/25 05:15:48;;;;;;;8.70;4.60;;;14.70;99.90;;;;;;5097522;28;20205;-83
2023/07/25 05:18:14;;;;;;;7.22;3.95;;;14.80;99.90;;;;;;5097579;28;20638;-80
2023/07/25 05:20:41;;;;;;;12.45;3.92;;;14.80;99.90;;;;;;5098499;28;20201;-83
2023/07/25 05:23:09;;;;;;;6.25;3.50;;;14.90;99.90;;;;;;5097846;28;20517;-83
2023/07/25 05:25:37;;;;;;;10.27;4.43;;;15.00;99.90;;;;;;5097208;28;20217;-82
2023/07/25 05:28:04;;;;;;;10.18;3.58;;;15.00;99.90;;;;;;5096748;28;20205;-82
2023/07/25 05:30:31;;;;;;;10.95;5.15;;;15.00;99.90;;;;;;5077054;28;20195;-83
2023/07/25 05:32:58;;;;;;;10.25;4.28;;;15.00;99.90;;;;;;5077589;28;20237;-83
2023/07/25 05:35:25;;;;;;;8.80;4.28;;;15.10;99.90;;;;;;5076914;28;20199;-83
2023/07/25 05:37:51;;;;;;;9.13;4.10;;;15.20;99.90;;;;;;5083312;28;20198;-80
2023/07/25 05:40:18;;;;;;;8.18;3.67;;;15.20;99.90;;;;;;5090650;28;20198;-81
2023/07/25 05:42:47;;;;;;;11.13;4.30;;;15.10;99.90;;;;;;5077467;28;20241;-81
2023/07/25 05:45:14;;;;;;;8.35;3.97;;;15.20;99.90;;;;;;5097442;28;20248;-82
2023/07/25 05:47:41;;;;;;;8.35;4.07;;;15.30;99.90;;;;;;5096676;28;20214;-82
2023/07/25 05:50:09;;;;;;;7.60;3.92;;;15.00;99.90;;;;;;5096494;28;20301;-81
2023/07/25 05:52:36;;;;;;;8.00;4.03;;;15.00;99.90;;;;;;5080511;28;20583;-81
2023/07/25 05:55:03;;;;;;;6.82;3.95;;;14.90;99.90;;;;;;5082354;28;20256;-81
2023/07/25 05:57:30;;;;;;;8.70;3.75;;;15.00;99.90;;;;;;5097020;28;20405;-83
2023/07/25 05:59:58;;;;;;;9.10;4.38;;;14.90;99.90;;;;;;5080167;28;20203;-82
2023/07/25 06:02:24;;;;;;;9.00;4.38;;;14.80;99.90;;;;;;5090738;28;20226;-82
2023/07/25 06:04:52;;;;;;;7.72;3.85;;;15.00;99.90;;;;;;5080526;28;20202;-83
2023/07/25 06:07:20;;;;;;;7.70;3.92;;;15.10;99.90;;;;;;5089096;28;20244;-83
2023/07/25 06:09:47;;;;;;;9.50;4.70;;;15.20;99.90;;;;;;5081403;28;20559;-81
2023/07/25 06:12:16;;;;;;;10.77;4.00;;;15.30;99.90;;;;;;5080868;28;20313;-81
2023/07/25 06:14:42;;;;;;;9.65;4.60;;;15.20;99.90;;;;;;5081269;28;20297;-80
2023/07/25 06:17:11;;;;;;;9.70;4.57;;;15.20;99.90;;;;;;5091715;28;20205;-81
2023/07/25 06:19:37;;;;;;;9.52;3.97;;;15.20;99.90;;;;;;5101048;28;20664;-81
2023/07/25 06:22:04;;;;;;;6.30;3.78;;;15.10;99.90;;;;;;5100573;28;20233;-83
2023/07/25 06:24:31;;;;;;;7.75;3.25;;;15.10;99.90;;;;;;5100073;28;20205;-82
2023/07/25 06:26:58;;;;;;;7.78;4.28;;;15.10;99.90;;;;;;5098969;28;20254;-82
2023/07/25 06:29:25;;;;;;;6.40;3.70;;;15.10;99.90;;;;;;5098821;28;20293;-79
2023/07/25 06:31:52;;;;;;;6.22;4.18;;;15.20;99.90;;;;;;5099408;28;20222;-83
2023/07/25 06:34:20;;;;;;;5.55;4.05;;;15.40;99.90;;;;;;5099592;28;20201;-82
2023/07/25 06:36:47;;;;;;;8.05;3.90;;;15.50;99.90;;;;;;5099254;28;20202;-83
2023/07/25 06:39:14;;;;;;;18.30;4.90;;;15.70;99.90;;;;;;5101490;28;20637;-81
2023/07/25 06:41:41;;;;;;;8.65;4.05;;;15.70;99.90;;;;;;5100634;28;20208;-82
2023/07/25 06:44:07;;;;;;;9.60;4.55;;;15.80;99.90;;;;;;5101455;28;20802;-82
2023/07/25 06:46:34;;;;;;;8.98;4.13;;;15.90;99.90;;;;;;5100879;28;20244;-82
2023/07/25 06:49:01;;;;;;;8.68;3.75;;;15.80;99.90;;;;;;5100069;28;20212;-83
2023/07/25 06:51:29;;;;;;;4.68;3.10;;;15.70;99.90;;;;;;5100350;28;20265;-80
2023/07/25 06:53:56;;;;;;;11.73;3.80;;;15.60;99.90;;;;;;5099887;28;20213;-79
2023/07/25 06:56:23;;;;;;;5.35;3.35;;;15.90;99.90;;;;;;5099710;28;20204;-81
2023/07/25 06:58:49;;;;;;;11.13;4.20;;;15.90;99.90;;;;;;5098490;28;20277;-82
2023/07/25 07:01:16;;;;;;;9.05;3.65;;;16.10;99.90;;;;;;5082951;28;20197;-79
2023/07/25 07:03:43;;;;;;;7.40;3.15;;;16.20;99.90;;;;;;5099375;28;20241;-81
2023/07/25 07:06:10;;;;;;;6.35;3.58;;;16.20;99.90;;;;;;5097285;28;20294;-82
2023/07/25 07:08:38;;;;;;;7.72;3.10;;;16.30;99.90;;;;;;5098667;28;20221;-80
2023/07/25 07:11:05;;;;;;;6.80;3.65;;;16.50;99.90;;;;;;5099655;28;20209;-81
2023/07/25 07:13:31;;;;;;;9.15;2.80;;;16.50;99.90;;;;;;5099555;28;20227;-80
2023/07/25 07:15:58;;;;;;;8.45;3.28;;;16.30;99.90;;;;;;5099330;28;20200;-83
2023/07/25 07:18:25;;;;;;;9.45;3.80;;;16.10;99.90;;;;;;5098751;28;20198;-80
2023/07/25 07:20:52;;;;;;;8.65;2.90;;;16.10;99.90;;;;;;5099757;28;20209;-83
2023/07/25 07:23:19;;;;;;;8.35;3.75;;;16.10;99.90;;;;;;5099202;28;20311;-82
2023/07/25 07:25:47;;;;;;;9.18;3.70;;;16.20;99.90;;;;;;5097885;28;20221;-80
2023/07/25 07:28:14;;;;;;;9.10;3.33;;;16.30;99.90;;;;;;5078509;28;20208;-80
2023/07/25 07:30:41;;;;;;;10.80;4.25;;;16.30;99.90;;;;;;5078630;28;20673;-83
2023/07/25 07:33:08;;;;;;;10.00;4.10;;;16.50;99.90;;;;;;5078535;28;20222;-79
2023/07/25 07:35:34;;;;;;;13.05;3.90;;;16.40;99.90;;;;;;5092922;28;20201;-81
2023/07/25 07:38:01;;;;;;;12.70;4.07;;;16.40;99.90;;;;;;5090334;28;20206;-82
2023/07/25 07:40:28;;;;;;;7.53;3.45;;;16.40;99.90;;;;;;5090476;28;20265;-82
2023/07/25 07:42:57;;;;;;;4.72;3.00;;;16.50;99.90;;;;;;5099132;28;20230;-82
2023/07/25 07:45:25;;;;;;;9.77;3.83;;;16.80;99.90;;;;;;5098763;28;20297;-79
2023/07/25 07:47:51;;;;;;;5.20;3.30;;;16.90;99.90;;;;;;5097612;28;20233;-81
2023/07/25 07:50:19;;;;;;;5.05;3.08;;;17.10;99.90;;;;;;5097406;28;20194;-80
2023/07/25 07:52:46;;;;;;;7.75;3.10;;;17.10;99.90;;;;;;5097563;28;20275;-83
2023/07/25 07:55:14;;;;;;;3.45;2.85;;;17.00;99.90;;;;;;5096327;28;20202;-82
2023/07/25 07:57:42;;;;;;;6.32;2.75;;;16.90;99.90;;;;;;5097325;28;20209;-81
2023/07/25 08:00:13;;;;;;;6.90;3.92;;;16.70;99.90;;;;;;5098574;28;20288;-80
2023/07/25 08:02:40;;;;;;;5.57;2.90;;;16.70;99.90;;;;;;5096565;28;20280;-82
2023/07/25 08:05:08;;;;;;;6.35;3.33;;;16.80;99.90;;;;;;5097809;28;20287;-83
2023/07/25 08:07:35;;;;;;;3.92;2.65;;;16.80;99.90;;;;;;5090976;28;20218;-80
2023/07/25 08:10:02;;;;;;;5.28;3.13;;;16.90;99.90;;;;;;5095984;28;20204;-82
2023/07/25 08:12:29;;;;;;;5.75;2.28;;;16.80;99.90;;;;;;5077947;28;20422;-83
2023/07/25 08:14:56;;;;;;;7.63;3.22;;;16.80;99.90;;;;;;5078335;28;20225;-80
2023/07/25 08:17:24;;;;;;;3.80;2.50;;;16.80;99.90;;;;;;5088790;28;20204;-81
2023/07/25 08:19:51;;;;;;;4.85;2.33;;;16.80;99.90;;;;;;5097568;28;20197;-82
2023/07/25 08:22:18;;;;;;;7.85;3.67;;;16.90;99.90;;;;;;5098184;28;20233;-80
2023/07/25 08:24:44;;;;;;;6.45;2.53;;;17.00;99.90;;;;;;5099231;28;20208;-82
2023/07/25 08:27:11;;;;;;;5.72;2.55;;;17.10;99.90;;;;;;5098337;28;20232;-80
2023/07/25 08:29:42;;;;;;;2.83;2.30;;;17.30;99.90;;;;;;5096607;28;20210;-80
2023/07/25 08:32:09;;;;;;;5.82;2.20;;;17.30;99.90;;;;;;5096345;28;20268;-82
2023/07/25 08:34:39;;;;;;;3.97;2.15;;;17.30;99.90;;;;;;5094605;28;20669;-83
2023/07/25 08:37:06;;;;;;;5.18;2.70;;;17.20;99.90;;;;;;5098135;28;20206;-82
2023/07/25 08:39:34;;;;;;;4.35;2.25;;;17.20;99.90;;;;;;5097885;28;20202;-82
2023/07/25 08:42:04;;;;;;;3.50;2.42;;;17.10;99.90;;;;;;5081309;28;20225;-82
2023/07/25 08:44:34;;;;;;;5.63;2.30;;;17.60;99.90;;;;;;5097871;28;20201;-83
2023/07/25 08:47:05;;;;;;;2.97;2.33;;;17.50;99.90;;;;;;5096749;28;20228;-82
2023/07/25 08:49:36;;;;;;;6.97;2.30;;;17.60;99.90;;;;;;5079297;28;20194;-82
2023/07/25 08:52:05;;;;;;;3.70;1.98;;;17.60;99.90;;;;;;5080709;28;20238;-82
2023/07/25 08:54:34;;;;;;;6.03;1.90;;;17.70;99.90;;;;;;5091320;28;20545;-81
2023/07/25 08:57:01;;;;;;;5.10;2.28;;;17.90;99.90;;;;;;5098914;28;20273;-81
2023/07/25 08:59:28;;;;;;;7.35;2.30;;;17.90;99.90;;;;;;5099106;28;20292;-82
2023/07/25 09:01:56;;;;;;;4.40;2.35;;;17.90;99.90;;;;;;5097624;28;20225;-80
2023/07/25 09:04:24;;;;;;;4.50;2.03;;;17.50;99.90;;;;;;5097355;28;20197;-82
2023/07/25 09:06:51;;;;;;;5.00;2.40;;;17.60;99.90;;;;;;5096161;28;20236;-79
2023/07/25 09:09:19;;;;;;;5.25;1.95;;;18.20;99.90;;;;;;5078861;28;20292;-82
2023/07/25 09:11:46;;;;;;;3.92;2.00;;;18.70;99.90;;;;;;5089200;28;20205;-82
2023/07/25 09:14:13;;;;;;;4.38;2.47;;;18.90;99.90;;;;;;5095650;28;20201;-79
2023/07/25 09:16:40;;;;;;;5.78;2.28;;;19.30;99.90;;;;;;5088096;28;20608;-82
2023/07/25 09:19:07;;;;;;;5.88;1.90;;;19.70;99.90;;;;;;5093452;28;20190;-79
2023/07/25 09:21:46;;;;;;;6.18;2.10;;;19.20;99.90;;;;;;5096295;28;20656;-82
2023/07/25 09:24:13;;;;;;;5.13;1.80;;;19.80;99.90;;;;;;5096559;28;20569;-81
2023/07/25 09:26:41;;;;;;;3.47;1.63;;;20.00;99.90;;;;;;5091801;28;20304;-80
2023/07/25 09:29:08;;;;;;;3.58;1.60;;;20.30;99.90;;;;;;5096835;28;20206;-80
2023/07/25 09:31:44;;;;;;;2.72;1.50;;;19.90;99.90;;;;;;5098186;28;20232;-81
2023/07/25 09:34:15;;;;;;;3.58;1.80;;;19.70;99.90;;;;;;5098651;28;20288;-83
2023/07/25 09:36:45;;;;;;;6.20;2.15;;;19.60;99.90;;;;;;5094701;28;20678;-79
2023/07/25 09:39:12;;;;;;;5.70;2.00;;;20.00;99.90;;;;;;5102430;28;20202;-78
2023/07/25 09:41:39;;;;;;;3.58;1.58;;;20.60;99.90;;;;;;5102953;28;20276;-80
2023/07/25 09:44:07;;;;;;;5.53;1.90;;;20.60;99.90;;;;;;5101055;28;20209;-80
2023/07/25 09:46:34;;;;;;;3.95;1.73;;;19.70;99.90;;;;;;5087083;28;20253;-81
2023/07/25 09:49:01;;;;;;;5.70;1.80;;;19.00;99.90;;;;;;5087278;28;20194;-80
2023/07/25 09:51:27;;;;;;;2.53;1.38;;;18.80;99.90;;;;;;5083381;28;20206;-80
2023/07/25 09:53:55;;;;;;;3.58;1.65;;;19.00;99.90;;;;;;5082665;28;20244;-81
2023/07/25 09:56:24;;;;;;;6.53;2.13;;;18.90;99.90;;;;;;5096118;28;20201;-78
2023/07/25 09:58:51;;;;;;;3.15;1.40;;;19.60;99.90;;;;;;5081997;28;20206;-81
2023/07/25 10:01:19;;;;;;;5.70;1.77;;;20.10;99.90;;;;;;5083219;28;20252;-80
2023/07/25 10:03:47;;;;;;;3.38;1.48;;;20.40;99.90;;;;;;5081162;28;20226;-82
2023/07/25 10:06:15;;;;;;;5.50;1.83;;;19.70;99.90;;;;;;5082577;28;20229;-80
2023/07/25 10:08:43;;;;;;;4.97;1.88;;;19.40;99.90;;;;;;5082524;28;20297;-81
2023/07/25 10:11:12;;;;;;;3.25;1.73;;;19.20;99.90;;;;;;5081801;28;20586;-81
2023/07/25 10:13:39;;;;;;;7.57;1.83;;;19.00;99.90;;;;;;5082747;28;20229;-81
2023/07/25 10:16:07;;;;;;;5.22;1.55;;;18.90;99.90;;;;;;5082218;28;20222;-79
2023/07/25 10:18:35;;;;;;;2.58;1.27;;;19.10;99.90;;;;;;5082471;28;20582;-80
2023/07/25 10:21:03;;;;;;;2.72;1.80;;;19.50;99.90;;;;;;5082309;28;20206;-79
2023/07/25 10:23:34;;;;;;;3.30;1.67;;;20.10;99.90;;;;;;5081243;28;20450;-81
2023/07/25 10:26:12;;;;;;;1.98;1.35;;;20.40;99.90;;;;;;5082739;28;20202;-80
2023/07/25 10:28:39;;;;;;;2.15;1.30;;;20.50;99.90;;;;;;5081648;28;20229;-80
2023/07/25 10:31:07;;;;;;;4.68;1.52;;;20.30;99.90;;;;;;5081147;28;20256;-79
2023/07/25 10:33:39;;;;;;;3.45;1.55;;;20.00;99.90;;;;;;5080606;28;20241;-78
2023/07/25 10:36:06;;;;;;;3.17;1.65;;;20.10;99.90;;;;;;5079952;28;20182;-81
2023/07/25 10:38:35;;;;;;;4.50;1.67;;;20.20;99.90;;;;;;5081171;28;20278;-80
2023/07/25 10:41:13;;;;;;;2.80;1.38;;;20.10;99.90;;;;;;5081148;28;20230;-80
2023/07/25 10:44:04;;;;;;;2.75;1.58;;;20.30;99.90;;;;;;5083393;28;20222;-79
2023/07/25 10:46:32;;;;;;;1.45;1.33;;;20.50;99.90;;;;;;5062851;28;20206;-79
2023/07/25 10:49:02;;;;;;;3.42;1.20;;;20.40;99.90;;;;;;5079717;28;20267;-79
2023/07/25 10:51:49;;;;;;;1.42;1.20;;;20.50;99.90;;;;;;5079037;28;20228;-79
2023/07/25 10:54:17;;;;;;;3.40;1.33;;;20.50;99.90;;;;;;5079205;28;20206;-80
2023/07/25 10:57:13;;;;;;;3.67;1.52;;;20.80;99.90;;;;;;5081147;28;20206;-83
2023/07/25 11:00:04;;;;;;;4.38;1.33;;;20.60;99.90;;;;;;5081199;28;20236;-80
2023/07/25 11:02:32;;;;;;;4.10;1.20;;;20.70;90.10;;;;;;5081865;28;20218;-80
2023/07/25 11:05:22;;;;;;;3.08;1.42;;;20.40;40.20;;;;;;5080691;28;20705;-80
2023/07/25 11:07:55;;;;;;;1.20;1.10;;;20.60;87.50;;;;;;5077384;28;20225;-80
2023/07/25 11:10:24;;;;;;;5.18;1.40;;;20.40;54.40;;;;;;5083626;28;20202;-79
2023/07/25 11:12:52;;;;;;;3.45;1.60;;;20.40;78.80;;;;;;5081900;28;20720;-80
2023/07/25 11:15:19;;;;;;;5.00;1.50;;;20.90;97.80;;;;;;5081973;28;20232;-80
2023/07/25 11:17:45;;;;;;;2.85;1.35;;;20.70;58.80;;;;;;5081075;28;20415;-80
2023/07/25 11:20:14;;;;;;;3.28;1.20;;;20.70;24.50;;;;;;5081900;28;20206;-80
2023/07/25 11:22:43;;;;;;;3.80;1.10;;;20.90;39.90;;;;;;5082186;28;20237;-80
2023/07/25 11:25:10;;;;;;;2.47;1.10;;;21.00;1.00;;;;;;5082624;28;20288;-79
2023/07/25 11:27:41;;;;;;;3.30;1.35;;;20.80;1.00;;;;;;5081160;28;20226;-80
2023/07/25 11:30:13;;;;;;;1.55;1.05;;;20.60;1.00;;;;;;5090973;28;20689;-80
2023/07/25 11:32:45;;;;;;;3.60;1.83;;;21.10;16.70;;;;;;5098925;28;20220;-81
2023/07/25 11:35:12;;;;;;;3.63;1.60;;;21.30;18.00;;;;;;5100959;28;20206;-78
2023/07/25 11:37:40;;;;;;;2.38;1.20;;;21.40;66.00;;;;;;5102440;28;20208;-80
2023/07/25 11:40:19;;;;;;;8.45;1.67;;;21.20;1.00;;;;;;5103081;28;20270;-79
2023/07/25 11:42:48;;;;;;;2.33;1.33;;;21.20;1.00;;;;;;5101965;28;20622;-80
2023/07/25 11:45:16;;;;;;;3.03;1.23;;;21.60;20.70;;;;;;5090640;28;20210;-79
2023/07/25 11:47:45;;;;;;;3.05;1.17;;;21.80;1.00;;;;;;5087600;28;20285;-79
2023/07/25 11:50:13;;;;;;;2.03;1.15;;;21.80;1.00;;;;;;5095032;28;20194;-81
2023/07/25 11:52:43;;;;;;;2.85;1.70;;;22.40;1.00;;;;;;5093698;28;20308;-80
2023/07/25 11:55:10;;;;;;;3.40;1.38;;;21.70;1.00;;;;;;5100547;28;20206;-80
2023/07/25 11:57:40;;;;;;;3.13;1.35;;;22.00;1.00;;;;;;5099011;28;20208;-79
2023/07/25 12:00:11;;;;;;;3.95;1.65;;;21.60;1.00;;;;;;5081312;28;20198;-81
2023/07/25 12:02:38;;;;;;;2.28;1.35;;;21.20;1.00;;;;;;5081436;28;20272;-81
2023/07/25 12:05:05;;;;;;;1.65;1.13;;;20.70;1.00;;;;;;5080573;28;20293;-80
2023/07/25 12:07:51;;;;;;;1.98;1.52;;;20.80;1.00;;;;;;5081511;28;20332;-81
2023/07/25 12:10:27;;;;;;;1.95;1.33;;;20.80;1.00;;;;;;5081465;28;20221;-79
2023/07/25 12:12:56;;;;;;;4.97;2.00;;;20.70;1.00;;;;;;5080800;28;20228;-79
2023/07/25 12:15:23;;;;;;;4.60;1.92;;;20.60;36.10;;;;;;5081502;28;20198;-80
2023/07/25 12:17:50;;;;;;;8.38;2.10;;;19.70;57.80;;;;;;5081544;28;20202;-80
2023/07/25 12:20:19;;;;;;;3.10;1.92;;;19.40;93.40;;;;;;5080966;28;20247;-81
2023/07/25 12:22:47;;;;;;;4.32;2.28;;;19.40;99.90;;;;;;5081680;28;20847;-79
2023/07/25 12:25:17;;;;;;;2.58;2.38;;;19.40;99.90;;;;;;5080380;28;20202;-79
2023/07/25 12:27:48;;;;;;;3.53;2.13;;;19.20;99.90;;;;;;5079818;28;20210;-78
2023/07/25 12:30:17;;;;;;;4.97;2.35;;;19.30;99.90;;;;;;5079680;28;20301;-79
2023/07/25 12:32:44;;;;;;;4.10;2.40;;;19.20;99.90;;;;;;5079676;28;20309;-80
2023/07/25 12:35:12;;;;;;;4.07;2.38;;;19.10;99.90;;;;;;5079606;28;20274;-81
2023/07/25 12:37:39;;;;;;;6.03;2.17;;;18.70;99.90;;;;;;5079662;28;20289;-79
2023/07/25 12:40:07;;;;;;;7.15;2.33;;;18.70;99.90;;;;;;5078509;28;20206;-82
2023/07/25 12:42:34;;;;;;;5.20;2.10;;;18.90;99.90;;;;;;5079249;28;20230;-81
2023/07/25 12:45:05;;;;;;;6.40;2.42;;;18.80;99.90;;;;;;5079564;28;20201;-80
2023/07/25 12:47:34;;;;;;;5.57;2.50;;;18.70;99.90;;;;;;5079905;28;20214;-81
2023/07/25 12:50:01;;;;;;;3.40;2.30;;;18.50;99.90;;;;;;5080423;28;20206;-80